Latest Weather Observations for Hobart

IDT60801

Issued at 8:31 am EST Thursday 1 October 2020 (issued every 10 minutes, with the page automatically refreshed every 10 minutes)

About weather observations | Map of weather stations | Latest weather observations for TAS | Other Formats
Station Details ID: 094029 Name: HOBART (ELLERSLIE ROAD) Lat: -42.89 Lon: 147.33 Height: 50.5 m
Data from the previous 72 hours. | See also: Recent months at Hobart
Date/Time
EST
Temp
°C
App
Temp
°C
Dew
Point
°C
Rel
Hum
%
Delta-T
°C
Wind Press
QNH
hPa
Press
MSL
hPa
Rain since
9am
mm
Dir  Spd
km/h
Gust
km/h
Spd
kts
Gust
kts
01/08:30am 13.2 7.8 2.7 49 4.7 NNW 20 41 11 22 1005.7 1005.8 0.4
01/08:00am 12.6 6.9 3.0 52 4.3 NNW 22 35 12 19 1005.5 1005.6 0.4
01/07:30am 11.8 6.7 2.8 54 3.9 NNW 19 24 10 13 1005.2 1005.3 0.4
01/07:00am 11.2 5.8 2.5 55 3.8 NNW 20 28 11 15 1004.8 1004.9 0.4
01/06:30am 10.3 5.0 3.1 61 3.1 NNW 20 30 11 16 1004.7 1004.8 0.4
01/06:00am 10.4 4.7 3.0 60 3.2 NNW 22 33 12 18 1004.0 1004.1 0.4
01/05:30am 10.6 4.1 2.9 59 3.3 NNW 26 39 14 21 1003.6 1003.7 0.4
01/05:00am 10.9 4.8 3.0 58 3.5 NNW 24 35 13 19 1002.9 1003.0 0.4
01/04:30am 11.1 4.3 3.2 58 3.5 NNW 28 39 15 21 1002.2 1002.3 0.4
01/04:00am 11.3 3.7 3.1 57 3.6 NNW 32 43 17 23 1001.8 1001.8 0.4
01/03:30am 11.4 6.3 2.9 56 3.7 N 19 30 10 16 1001.3 1001.3 0.4
01/03:00am 11.5 6.4 3.3 57 3.6 N 19 28 10 15 1001.1 1001.1 0.4
01/02:30am 11.8 6.3 3.8 58 3.6 NNW 22 33 12 18 1001.0 1001.0 0.4
01/02:00am 11.5 7.9 5.2 65 2.9 NNW 13 20 7 11 1000.9 1000.9 0.4
01/01:30am 11.5 6.9 5.8 68 2.7 N 19 30 10 16 1000.9 1000.9 0.4
01/01:00am 11.5 6.5 6.4 71 2.4 NNW 22 32 12 17 1000.9 1000.9 0.4
01/12:30am 11.8 7.8 6.5 70 2.5 NW 17 32 9 17 1001.0 1001.0 0.4
01/12:00am 11.9 8.7 7.0 72 2.4 NNW 13 19 7 10 1000.8 1000.8 0.4
 
Date/Time
EST
Temp
°C
App
Temp
°C
Dew
Point
°C
Rel
Hum
%
Delta-T
°C
Wind Press
QNH
hPa
Press
MSL
hPa
Rain since
9am
mm
Dir  Spd
km/h
Gust
km/h
Spd
kts
Gust
kts
30/11:30pm 11.9 9.2 7.4 74 2.2 NNW 11 19 6 10 1000.7 1000.7 0.4
30/11:00pm 12.0 6.4 7.3 73 2.3 NNW 26 43 14 23 1000.3 1000.3 0.4
30/10:30pm 12.1 8.5 8.2 77 1.9 NNW 17 26 9 14 1000.7 1000.7 0.4
30/10:00pm 13.2 9.6 8.3 72 2.5 NW 17 28 9 15 1001.1 1001.1 0.2
30/09:30pm 13.8 9.5 7.8 67 3.0 N 20 28 11 15 1000.7 1000.7 0.2
30/09:00pm 13.9 9.2 7.7 66 3.1 NNW 22 30 12 16 1000.4 1000.4 0.2
30/08:30pm 13.6 9.5 7.8 68 2.9 N 19 26 10 14 1000.4 1000.4 0.2
30/08:00pm 13.7 9.6 7.9 68 2.9 N 19 32 10 17 1000.4 1000.4 0.2
30/07:30pm 14.0 9.2 7.5 65 3.2 N 22 30 12 16 1000.7 1000.7 0.2
30/07:00pm 14.8 8.8 6.9 59 3.9 NNW 28 39 15 21 1000.7 1000.7 0.2
30/06:30pm 15.1 8.1 6.7 57 4.1 NNW 33 46 18 25 1000.6 1000.6 0.2
30/06:00pm 15.5 7.7 6.5 55 4.4 NNW 37 50 20 27 1000.5 1000.5 0.2
30/05:30pm 16.0 9.0 6.2 52 4.8 NNW 32 52 17 28 1000.7 1000.7 0.2
30/05:00pm 16.4 10.2 6.2 51 5.0 NNW 28 48 15 26 1001.1 1001.1 0.2
30/04:37pm 16.9 10.2 5.8 48 5.4 NNW 30 56 16 30 1001.3 1001.3 0.2
30/04:30pm 17.0 11.2 6.2 49 5.3 NNW 26 44 14 24 1001.4 1001.4 0.2
30/04:05pm 17.0 10.9 6.8 51 5.1 N 28 48 15 26 1001.6 1001.6 0.2
30/04:00pm 17.1 11.0 6.6 50 5.2 N 28 44 15 24 1001.7 1001.7 0.2
30/03:30pm 17.5 11.9 7.0 50 5.2 N 26 41 14 22 1002.0 1002.0 0.2
30/03:17pm 17.0 10.9 6.5 50 5.2 NNW 28 46 15 25 1002.2 1002.3 0.2
30/03:00pm 17.2 11.2 7.0 51 5.1 N 28 41 15 22 1002.4 1002.5 0.2
30/02:30pm 17.4 11.5 7.5 52 5.0 NNW 28 43 15 23 1002.8 1002.9 0.2
30/02:00pm 18.0 13.5 7.1 49 5.5 NNW 20 35 11 19 1003.3 1003.4 0.2
30/01:51pm 18.6 12.2 7.1 47 5.8 NNW 30 48 16 26 1003.5 1003.6 0.2
30/01:44pm 18.5 11.7 7.0 47 5.8 NNW 32 48 17 26 1003.6 1003.7 0.2
30/01:30pm 17.4 13.0 7.2 51 5.1 NNW 20 28 11 15 1003.9 1004.0 0.2
30/01:00pm 17.1 10.4 7.2 52 5.0 NNW 32 46 17 25 1004.7 1004.8 0.2
30/12:30pm 17.9 11.1 7.0 49 5.5 N 32 52 17 28 1005.0 1005.1 0.2
30/12:28pm 18.3 11.5 7.1 48 5.6 N 32 52 17 28 1005.0 1005.1 0.2
30/12:00pm 18.3 13.5 8.8 54 5.0 N 24 41 13 22 1005.4 1005.5 0.0
30/11:30am 17.7 12.4 8.6 55 4.7 NNW 26 41 14 22 1006.2 1006.3 0.0
30/11:00am 15.9 9.8 8.2 60 3.9 NNW 30 39 16 21 1006.7 1006.8 0.0
30/10:30am 15.6 9.8 7.9 60 3.9 NNW 28 41 15 22 1007.8 1007.9 0.0
30/10:00am 13.3 8.6 7.7 69 2.8 NNW 22 32 12 17 1008.5 1008.6 0.0
30/09:30am 12.3 7.9 7.4 72 2.4 N 20 28 11 15 1009.4 1009.5 0.0
30/09:00am 11.6 8.1 7.1 74 2.2 NNW 15 26 8 14 1009.7 1009.8 0.2
30/08:30am 11.1 6.8 7.0 76 2.0 N 19 26 10 14 1010.0 1010.1 0.2
30/08:00am 10.7 6.7 6.6 76 1.9 NNW 17 26 9 14 1010.2 1010.3 0.2
30/07:30am 10.6 7.0 6.6 76 1.9 N 15 20 8 11 1010.9 1010.9 0.2
30/07:00am 10.5 6.0 6.3 75 2.0 N 19 26 10 14 1010.9 1010.9 0.2
30/06:30am 11.2 6.9 5.1 66 2.8 NNW 17 24 9 13 1011.0 1011.0 0.0
30/06:00am 11.5 6.6 4.3 61 3.2 NNW 19 24 10 13 1011.1 1011.1 0.0
30/05:30am 11.5 6.1 4.3 61 3.2 NNW 22 30 12 16 1011.0 1011.0 0.0
30/05:00am 11.4 5.9 4.2 61 3.2 NNW 22 32 12 17 1011.2 1011.2 0.0
30/04:30am 11.8 5.6 4.3 60 3.4 NNW 26 35 14 19 1011.7 1011.7 0.0
30/04:00am 11.7 5.8 4.0 59 3.5 NNW 24 37 13 20 1011.8 1011.8 0.0
30/03:30am 11.5 6.3 3.8 59 3.4 N 20 33 11 18 1011.9 1011.9 0.0
30/03:00am 11.5 5.9 3.3 57 3.6 N 22 33 12 18 1012.3 1012.3 0.0
30/02:30am 11.2 5.1 2.8 56 3.7 N 24 33 13 18 1012.7 1012.7 0.0
30/02:00am 11.3 4.8 2.6 55 3.8 N 26 37 14 20 1013.2 1013.2 0.0
30/01:30am 11.3 5.6 2.9 56 3.7 N 22 33 12 18 1013.8 1013.8 0.0
30/01:00am 11.5 5.0 2.8 55 3.8 N 26 39 14 21 1014.1 1014.1 0.0
30/12:30am 11.5 5.5 3.3 57 3.6 NNW 24 39 13 21 1014.3 1014.3 0.0
30/12:00am 11.4 5.1 3.7 59 3.4 N 26 33 14 18 1014.8 1014.8 0.0
 
Date/Time
EST
Temp
°C
App
Temp
°C
Dew
Point
°C
Rel
Hum
%
Delta-T
°C
Wind Press
QNH
hPa
Press
MSL
hPa
Rain since
9am
mm
Dir  Spd
km/h
Gust
km/h
Spd
kts
Gust
kts
29/11:30pm 11.6 6.0 3.4 57 3.6 NNW 22 33 12 18 1015.2 1015.2 0.0
29/11:00pm 12.0 5.7 3.5 56 3.8 NNW 26 41 14 22 1015.3 1015.3 0.0
29/10:30pm 12.0 6.5 4.0 58 3.6 N 22 32 12 17 1015.6 1015.6 0.0
29/10:00pm 12.5 6.9 3.5 54 4.0 N 22 32 12 17 1015.8 1015.8 0.0
29/09:30pm 12.5 6.6 4.0 56 3.8 NNW 24 33 13 18 1016.3 1016.3 0.0
29/09:00pm 12.5 9.2 4.5 58 3.6 NNW 11 19 6 10 1016.7 1016.7 0.0
29/08:30pm 12.5 9.6 4.7 59 3.6 NNE 9 13 5 7 1017.1 1017.1 0.0
29/08:00pm 13.0 9.4 4.9 58 3.7 N 13 19 7 10 1017.1 1017.1 0.0
29/07:30pm 13.4 10.6 5.1 57 3.9 N 9 15 5 8 1017.2 1017.2 0.0
29/07:00pm 13.5 9.9 5.2 57 3.9 N 13 19 7 10 1017.4 1017.4 0.0
29/06:30pm 14.1 9.7 4.7 53 4.4 N 17 22 9 12 1017.5 1017.5 0.0
29/06:00pm 14.8 10.8 4.8 51 4.7 NNW 15 22 8 12 1017.5 1017.5 0.0
29/05:30pm 15.2 11.2 5.1 51 4.8 N 15 20 8 11 1017.5 1017.5 0.0
29/05:00pm 15.7 12.2 5.6 51 4.8 NNE 13 22 7 12 1017.5 1017.5 0.0
29/04:30pm 15.1 12.1 7.9 62 3.6 SE 13 17 7 9 1017.7 1017.7 0.0
29/04:00pm 15.0 12.6 8.5 65 3.3 S 11 17 6 9 1018.2 1018.2 0.0
29/03:30pm 14.8 10.9 8.5 66 3.2 SE 19 24 10 13 1018.5 1018.6 0.0
29/03:00pm 15.1 11.5 8.3 64 3.4 SE 17 24 9 13 1019.0 1019.1 0.0
29/02:30pm 15.3 11.3 8.1 62 3.6 SE 19 26 10 14 1019.2 1019.3 0.0
29/02:00pm 15.4 11.8 8.4 63 3.5 SE 17 26 9 14 1019.7 1019.8 0.0
29/01:30pm 15.2 10.8 7.5 60 3.8 ESE 20 24 11 13 1020.3 1020.4 0.0
29/01:00pm 17.8 15.5 5.7 45 5.9 NNW 7 15 4 8 1020.9 1021.0 0.0
29/12:30pm 17.3 13.4 3.2 39 6.5 NNW 13 20 7 11 1021.6 1021.7 0.0
29/12:00pm 16.3 13.1 5.0 47 5.4 NNE 11 20 6 11 1022.0 1022.1 0.0
29/11:30am 15.6 10.9 5.2 50 4.9 N 19 28 10 15 1022.8 1022.9 0.0
29/11:00am 15.2 11.2 5.1 51 4.8 NNW 15 24 8 13 1023.0 1023.1 0.0
29/10:30am 13.9 9.5 5.0 55 4.2 N 17 22 9 12 1023.4 1023.5 0.0
29/10:00am 13.1 8.8 5.3 59 3.6 N 17 26 9 14 1023.9 1024.0 0.0
29/09:30am 12.2 7.2 4.7 60 3.4 NNW 20 28 11 15 1024.5 1024.6 0.0
29/09:00am 11.2 6.4 4.7 64 2.9 NNW 19 26 10 14 1024.8 1024.9 0.0
29/08:30am 10.3 6.0 5.1 70 2.4 NNW 17 20 9 11 1025.1 1025.2 0.0
29/08:00am 10.0 6.7 4.6 69 2.4 NNW 11 19 6 10 1025.1 1025.2 0.0
29/07:30am 8.7 5.4 4.5 75 1.9 NNW 11 17 6 9 1025.1 1025.2 0.0
29/07:00am 7.8 4.1 4.6 80 1.4 NW 13 19 7 10 1025.0 1025.1 0.0
29/06:30am 6.7 3.4 4.4 85 1.0 NW 11 15 6 8 1025.1 1025.2 0.0
29/06:00am 6.0 3.0 4.0 87 0.8 W 9 11 5 6 1024.9 1025.0 0.0
29/05:30am 7.2 3.9 4.5 83 1.2 NW 11 15 6 8 1024.8 1024.9 0.0
29/05:00am 7.5 4.2 4.8 83 1.2 NNW 11 17 6 9 1024.9 1025.0 0.0
29/04:30am 7.8 4.6 5.1 83 1.2 NNW 11 17 6 9 1024.9 1025.0 0.0
29/04:00am 8.1 4.6 5.4 83 1.2 NNW 13 17 7 9 1024.9 1025.0 0.0
29/03:30am 8.5 5.9 6.0 84 1.1 NNW 9 13 5 7 1025.1 1025.2 0.0
29/03:00am 8.6 6.2 5.4 80 1.4 NNW 7 11 4 6 1025.2 1025.3 0.0
29/02:30am 8.6 6.2 5.4 80 1.4 NNW 7 11 4 6 1025.5 1025.6 0.0
29/02:00am 8.6 6.4 5.4 80 1.4 NNW 6 9 3 5 1025.8 1025.9 0.0
29/01:30am 8.6 7.6 5.7 82 1.3 CALM 0 0 0 0 1026.2 1026.3 0.0
29/01:00am 8.7 7.7 5.6 81 1.4 CALM 0 0 0 0 1026.5 1026.6 0.0
29/12:30am 8.7 6.3 5.1 78 1.6 NW 7 9 4 5 1026.6 1026.7 0.0
29/12:00am 8.7 6.5 5.4 80 1.5 N 6 7 3 4 1026.6 1026.7 0.0
 
Date/Time
EST
Temp
°C
App
Temp
°C
Dew
Point
°C
Rel
Hum
%
Delta-T
°C
Wind Press
QNH
hPa
Press
MSL
hPa
Rain since
9am
mm
Dir  Spd
km/h
Gust
km/h
Spd
kts
Gust
kts
28/11:30pm 8.4 6.1 5.5 82 1.3 W 7 11 4 6 1026.6 1026.7 0.0
28/11:00pm 8.1 5.3 5.2 82 1.3 WSW 9 11 5 6 1026.8 1026.9 0.0
28/10:30pm 7.9 5.4 5.0 82 1.3 W 7 9 4 5 1026.9 1027.0 0.0
28/10:00pm 8.3 6.4 5.1 80 1.4 WSW 4 6 2 3 1027.1 1027.2 0.0
28/09:30pm 8.2 5.4 5.1 81 1.4 SW 9 13 5 7 1027.2 1027.3 0.0
28/09:00pm 9.1 6.9 5.1 76 1.8 S 6 9 3 5 1027.3 1027.4 0.0
28/08:30pm 8.9 6.4 4.9 76 1.8 W 7 11 4 6 1027.3 1027.4 0.0
28/08:00pm 8.9 7.4 5.1 77 1.7 SW 2 7 1 4 1027.1 1027.2 0.0
28/07:30pm 9.1 6.6 4.9 75 1.9 SW 7 13 4 7 1026.7 1026.8 0.0
28/07:00pm 10.0 6.8 5.2 72 2.2 SSE 11 15 6 8 1026.5 1026.6 0.0
28/06:30pm 10.1 7.0 5.5 73 2.1 SE 11 15 6 8 1026.2 1026.3 0.0
28/06:00pm 10.5 8.4 5.7 72 2.2 E 6 9 3 5 1025.8 1025.9 0.0
28/05:30pm 11.2 7.8 5.7 69 2.6 SSW 13 20 7 11 1025.4 1025.5 0.0
28/05:00pm 11.5 6.9 5.8 68 2.6 S 19 32 10 17 1025.1 1025.2 0.0
28/04:30pm 11.7 5.5 6.0 68 2.7 SSE 28 37 15 20 1024.6 1024.7 0.0
28/04:00pm 12.7 8.6 6.3 65 3.0 SSE 17 30 9 16 1024.3 1024.4 0.0
28/03:30pm 12.7 7.7 6.5 66 3.0 SSE 22 32 12 17 1024.0 1024.1 0.0
28/03:00pm 13.1 7.7 6.5 64 3.1 SSE 24 37 13 20 1024.1 1024.2 0.0
28/02:30pm 12.8 6.7 6.4 65 3.1 SE 28 39 15 21 1024.1 1024.2 0.0
28/02:00pm 13.7 8.7 6.6 62 3.4 ESE 22 32 12 17 1024.1 1024.2 0.0
28/01:30pm 14.8 11.7 5.6 54 4.4 NNE 11 22 6 12 1024.1 1024.2 0.0
28/01:00pm 16.3 11.7 3.7 43 5.8 WSW 17 33 9 18 1024.1 1024.2 0.0
28/12:30pm 15.9 10.3 3.7 44 5.6 SW 22 39 12 21 1024.2 1024.3 0.0
28/12:00pm 15.5 9.9 3.3 44 5.5 SW 22 41 12 22 1024.3 1024.4 0.0
28/11:30am 14.1 8.8 3.0 47 5.0 WSW 20 33 11 18 1024.4 1024.5 0.0
28/11:00am 13.7 6.9 3.2 49 4.7 SSW 28 41 15 22 1024.2 1024.3 0.0
28/10:30am 14.3 9.1 3.7 49 4.8 WSW 20 35 11 19 1024.6 1024.7 0.0
28/10:05am 13.5 6.8 3.8 52 4.4 SW 28 50 15 27 1024.5 1024.6 0.0
28/10:00am 13.2 6.5 3.8 53 4.2 SW 28 46 15 25 1024.7 1024.8 0.0
28/09:53am 13.0 6.3 3.7 53 4.2 SW 28 46 15 25 1024.7 1024.8 0.0
28/09:30am 12.8 8.9 3.5 53 4.2 WSW 13 35 7 19 1024.8 1024.9 0.0
28/09:00am 12.5 7.0 4.2 57 3.7 SW 22 39 12 21 1024.7 1024.8 0.0

Other formats

Comma delimited format used in spreadsheet applications
http://www.bom.gov.au/fwo/IDT60801/IDT60801.94970.axf

JavaScript Object Notation format (JSON) in row-major order
http://www.bom.gov.au/fwo/IDT60801/IDT60801.94970.json

Data quality

Most of these data are generated automatically and are frequently updated. Quality checks on data are not normally performed. It is possible for incorrect values to appear. Refer to information at About Latest Weather Observations and please check the disclaimer before using these data.